CheckWX is a tool to help pilots better visualize weather data.  It is not intended as a substitute for an official pre-flight weather briefing.

08:31:42 UTC

EEKE TAF
Kuressaare Airport
Kuressaare, Estonia
TAF EEKE 190600Z 1907/1913 24008KT 8000 OVC005 TEMPO 1907/1913 2500 SHRASN BR BKN003 SCT015CB BECMG 1908/1910 30014KT

Mar-19@
07:00 UTC

Mar-19 @ 07:00 UTC

Mar-19@
08:00 UTC

Mar-19 @ 08:00 UTC

TAF EEKE 190600Z 1907/1913 24008KT 8000 OVC005

Expired

Wind
  • 240° at 8 KTS
Cloud Levels
  • Overcast at 500' AGL

Mar-19@
07:00 UTC

Mar-19 @ 07:00 UTC

Mar-19@
13:00 UTC

Mar-19 @ 13:00 UTC

TEMPO 1907/1913 2500 SHRASN BR BKN003 SCT015CB

Temporary

Temporary Changes expected for less than half the time period

Conditions
Rain, Snow, Mist
Cloud Levels
  • Broken at 300' AGL
  • Scattered at 1,500' AGL

Mar-19@
08:00 UTC

Mar-19 @ 08:00 UTC

Mar-19@
13:00 UTC

Mar-19 @ 13:00 UTC

BECMG 1908/1910 30014KT

Becoming

Becoming Conditions expected by Tue, Mar 19, 2019 @ 10:00 UTC

Wind
  • 300° at 14 KTS
Cloud Levels
  • Overcast at 500' AGL